Time;durP1;ratioP1;P1;durP2;ratioP2;P2;SDS_P1;SDS_P2;PMS_P1;PMS_P2;Temp;Humidity;BMP_temperature;BMP_pressure;BME280_temperature;BME280_humidity;BME280_pressure;Samples;Min_cycle;Max_cycle;Signal;HPM_P1;HPM_P2
2023/12/13 00:01:38;;;;;;;28.17;16.85;;;8.70;99.90;;;;;;4962450;28;20112;-82
2023/12/13 00:04:04;;;;;;;32.40;17.55;;;8.70;99.90;;;;;;4989060;28;20402;-83
2023/12/13 00:06:30;;;;;;;30.02;17.35;;;8.80;99.90;;;;;;4956712;28;20359;-82
2023/12/13 00:08:56;;;;;;;28.90;16.70;;;8.80;99.90;;;;;;4993690;28;20039;-82
2023/12/13 00:11:22;;;;;;;29.40;16.67;;;8.70;99.90;;;;;;4963330;28;20057;-83
2023/12/13 00:13:48;;;;;;;29.95;15.93;;;8.80;99.90;;;;;;4965467;28;20436;-82
2023/12/13 00:16:14;;;;;;;29.48;15.75;;;8.60;99.90;;;;;;4977942;28;20389;-83
2023/12/13 00:18:41;;;;;;;28.23;15.60;;;8.50;99.90;;;;;;4961711;28;20194;-82
2023/12/13 00:21:08;;;;;;;27.92;15.23;;;8.70;99.90;;;;;;4991287;28;20125;-82
2023/12/13 00:23:34;;;;;;;26.15;14.32;;;8.50;99.90;;;;;;4992882;28;20148;-82
2023/12/13 00:26:00;;;;;;;28.83;15.77;;;8.50;99.90;;;;;;4958064;28;20130;-82
2023/12/13 00:28:25;;;;;;;26.80;15.43;;;8.60;99.90;;;;;;4964449;28;20031;-82
2023/12/13 00:30:51;;;;;;;26.08;14.57;;;8.60;99.90;;;;;;4959031;28;20069;-83
2023/12/13 00:33:17;;;;;;;25.20;13.63;;;8.50;99.90;;;;;;4989467;28;20067;-82
2023/12/13 00:35:42;;;;;;;25.85;15.10;;;8.70;99.90;;;;;;4964683;28;20125;-83
2023/12/13 00:38:09;;;;;;;28.20;15.15;;;8.50;99.90;;;;;;4965398;28;20045;-82
2023/12/13 00:40:34;;;;;;;27.48;15.75;;;8.70;99.90;;;;;;4956706;28;20238;-83
2023/12/13 00:43:01;;;;;;;26.90;15.52;;;8.60;99.90;;;;;;4966076;28;20038;-83
2023/12/13 00:45:28;;;;;;;24.80;14.98;;;8.70;99.90;;;;;;4988304;28;20069;-82
2023/12/13 00:47:53;;;;;;;29.30;15.52;;;8.60;99.90;;;;;;5007127;28;20121;-83
2023/12/13 00:50:19;;;;;;;33.95;16.90;;;8.70;99.90;;;;;;4958612;28;20113;-82
2023/12/13 00:52:45;;;;;;;34.22;17.60;;;8.60;99.90;;;;;;4994259;28;20046;-83
2023/12/13 00:55:11;;;;;;;28.40;15.93;;;8.70;99.90;;;;;;4972709;28;20160;-82
2023/12/13 00:57:36;;;;;;;27.15;16.23;;;8.60;99.90;;;;;;4958197;28;20039;-83
2023/12/13 01:00:02;;;;;;;30.98;16.63;;;8.60;99.90;;;;;;4956944;28;20099;-82
2023/12/13 01:02:31;;;;;;;35.70;17.13;;;8.70;99.90;;;;;;5005598;28;20480;-82
2023/12/13 01:04:57;;;;;;;29.15;16.10;;;8.70;99.90;;;;;;4990184;28;20042;-83
2023/12/13 01:07:23;;;;;;;30.80;17.08;;;8.60;99.90;;;;;;4976373;28;20042;-82
2023/12/13 01:09:49;;;;;;;32.20;17.02;;;8.80;99.90;;;;;;4983677;28;20096;-82
2023/12/13 01:12:15;;;;;;;34.95;17.70;;;8.70;99.90;;;;;;4977721;28;20498;-82
2023/12/13 01:14:41;;;;;;;39.42;19.35;;;8.70;99.90;;;;;;4967467;28;20286;-82
2023/12/13 01:17:07;;;;;;;33.22;17.95;;;8.60;99.90;;;;;;4964693;28;20038;-82
2023/12/13 01:19:33;;;;;;;34.55;19.20;;;8.60;99.90;;;;;;5008148;28;20053;-83
2023/12/13 01:21:59;;;;;;;45.42;21.50;;;8.70;99.90;;;;;;4966629;28;20038;-83
2023/12/13 01:24:25;;;;;;;40.13;19.40;;;8.70;99.90;;;;;;4980165;28;20042;-83
2023/12/13 01:26:50;;;;;;;44.95;21.58;;;8.70;99.90;;;;;;4977353;28;20049;-82
2023/12/13 01:29:16;;;;;;;53.17;22.02;;;8.70;99.90;;;;;;4999871;28;20133;-82
2023/12/13 01:31:42;;;;;;;42.83;21.75;;;8.60;99.90;;;;;;4962416;28;20070;-82
2023/12/13 01:34:07;;;;;;;44.22;22.08;;;8.50;99.90;;;;;;4993640;28;20092;-83
2023/12/13 01:36:42;;;;;;;43.15;20.95;;;8.70;99.90;;;;;;4968097;28;20506;-82
2023/12/13 01:39:09;;;;;;;54.58;24.38;;;8.60;99.90;;;;;;4974033;28;20065;-82
2023/12/13 01:41:34;;;;;;;44.17;22.23;;;8.70;99.90;;;;;;4979851;28;20125;-83
2023/12/13 01:44:00;;;;;;;49.70;23.42;;;8.60;99.90;;;;;;4970158;28;20117;-82
2023/12/13 01:46:26;;;;;;;46.00;22.55;;;8.60;99.90;;;;;;4981298;28;20574;-83
2023/12/13 01:48:52;;;;;;;63.30;25.85;;;8.70;99.90;;;;;;5010360;28;20066;-82
2023/12/13 01:51:18;;;;;;;53.67;24.77;;;8.60;99.90;;;;;;4991108;28;20042;-82
2023/12/13 01:53:44;;;;;;;57.35;25.27;;;8.70;99.90;;;;;;5000552;28;20034;-83
2023/12/13 01:56:12;;;;;;;55.63;24.92;;;8.60;99.90;;;;;;4978629;28;20552;-82
2023/12/13 01:58:39;;;;;;;53.90;24.42;;;8.70;99.90;;;;;;4966172;28;20050;-82
2023/12/13 02:01:08;;;;;;;51.03;24.92;;;8.60;99.90;;;;;;4973780;28;20035;-82
2023/12/13 02:03:36;;;;;;;56.38;26.38;;;8.70;99.90;;;;;;4993828;28;20101;-82
2023/12/13 02:06:04;;;;;;;56.95;25.77;;;8.70;99.90;;;;;;4968994;28;20522;-82
2023/12/13 02:08:30;;;;;;;51.55;25.77;;;8.70;99.90;;;;;;4989925;28;20055;-82
2023/12/13 02:10:58;;;;;;;57.28;26.02;;;8.60;99.90;;;;;;4967646;28;20038;-82
2023/12/13 02:13:24;;;;;;;62.78;26.23;;;8.60;99.90;;;;;;4967642;28;20680;-82
2023/12/13 02:15:50;;;;;;;48.20;24.65;;;8.70;99.90;;;;;;4963893;28;20117;-82
2023/12/13 02:18:16;;;;;;;53.85;26.17;;;8.70;99.90;;;;;;4965963;28;20126;-82
2023/12/13 02:20:43;;;;;;;52.40;24.98;;;8.70;99.90;;;;;;4984028;28;20474;-82
2023/12/13 02:23:09;;;;;;;62.22;28.83;;;8.80;99.90;;;;;;4967840;28;20034;-82
2023/12/13 02:25:59;;;;;;;59.53;28.65;;;8.60;99.90;;;;;;4966703;28;20493;-82
2023/12/13 02:28:26;;;;;;;52.05;26.23;;;8.70;99.90;;;;;;4991327;28;20579;-82
2023/12/13 02:30:54;;;;;;;57.17;27.60;;;8.60;99.90;;;;;;4965184;28;20524;-82
2023/12/13 02:33:27;;;;;;;54.03;27.35;;;8.60;99.90;;;;;;4991522;28;20039;-82
2023/12/13 02:35:56;;;;;;;64.85;27.65;;;8.70;99.90;;;;;;4962023;28;20058;-82
2023/12/13 02:38:22;;;;;;;52.97;26.42;;;8.60;99.90;;;;;;4994308;28;20366;-82
2023/12/13 02:40:48;;;;;;;57.13;28.27;;;8.60;99.90;;;;;;5004349;28;20048;-82
2023/12/13 02:43:14;;;;;;;54.42;24.88;;;8.60;99.90;;;;;;4967796;28;20530;-81
2023/12/13 02:45:39;;;;;;;50.25;24.85;;;8.70;99.90;;;;;;4967509;28;20132;-82
2023/12/13 02:48:05;;;;;;;54.30;25.02;;;8.70;99.90;;;;;;4972069;28;20054;-82
2023/12/13 02:50:38;;;;;;;51.88;25.30;;;8.70;99.90;;;;;;4973459;28;20039;-81
2023/12/13 02:53:56;;;;;;;49.03;23.42;;;8.70;99.90;;;;;;4970041;28;20050;-81
2023/12/13 02:56:13;;;;;;;46.72;22.65;;;8.70;99.90;;;;;;4988127;28;20035;-82
2023/12/13 02:58:38;;;;;;;50.80;24.33;;;8.60;99.90;;;;;;4983028;28;20494;-82
2023/12/13 03:01:04;;;;;;;46.38;21.65;;;8.70;99.90;;;;;;4978195;28;20443;-82
2023/12/13 03:03:30;;;;;;;52.22;23.40;;;8.80;99.90;;;;;;4975352;28;20047;-81
2023/12/13 03:05:56;;;;;;;45.47;22.17;;;8.80;99.90;;;;;;4994995;28;20058;-82
2023/12/13 03:08:22;;;;;;;53.47;23.67;;;8.80;99.90;;;;;;4980905;28;20050;-82
2023/12/13 03:10:47;;;;;;;47.90;22.67;;;8.70;99.90;;;;;;4993858;28;20092;-82
2023/12/13 03:13:13;;;;;;;44.10;21.17;;;8.70;99.90;;;;;;4964624;28;20046;-81
2023/12/13 03:15:39;;;;;;;50.45;22.42;;;8.70;99.90;;;;;;4978206;28;20034;-82
2023/12/13 03:18:04;;;;;;;44.50;21.13;;;8.60;99.90;;;;;;4964911;28;20034;-82
2023/12/13 03:20:30;;;;;;;36.58;19.88;;;8.60;99.90;;;;;;4978249;28;20037;-82
2023/12/13 03:22:56;;;;;;;41.88;21.10;;;8.60;99.90;;;;;;4969883;28;20034;-82
2023/12/13 03:25:22;;;;;;;44.85;20.52;;;8.60;99.90;;;;;;4985607;28;20074;-82
2023/12/13 03:27:48;;;;;;;39.80;19.83;;;8.70;99.90;;;;;;4961101;28;20394;-82
2023/12/13 03:30:13;;;;;;;43.75;20.67;;;8.70;99.90;;;;;;4980964;28;20437;-82
2023/12/13 03:32:39;;;;;;;40.38;20.05;;;8.60;99.90;;;;;;4963597;28;20104;-81
2023/12/13 03:35:06;;;;;;;37.95;19.02;;;8.60;99.90;;;;;;4957206;28;20053;-82
2023/12/13 03:37:33;;;;;;;36.47;17.75;;;8.70;99.90;;;;;;4977728;28;20121;-88
2023/12/13 03:39:59;;;;;;;34.67;19.15;;;8.60;99.90;;;;;;5008592;28;20049;-88
2023/12/13 03:42:25;;;;;;;35.85;19.30;;;8.60;99.90;;;;;;4989529;28;20031;-88
2023/12/13 03:44:50;;;;;;;32.13;17.80;;;8.60;99.90;;;;;;4966354;28;20034;-88
2023/12/13 03:47:16;;;;;;;37.60;18.55;;;8.70;99.90;;;;;;4996878;28;20435;-88
2023/12/13 03:49:42;;;;;;;32.05;16.85;;;8.60;99.90;;;;;;5007417;28;20058;-88
2023/12/13 03:52:10;;;;;;;31.45;17.40;;;8.60;99.90;;;;;;4969107;28;20042;-88
2023/12/13 03:54:36;;;;;;;31.85;17.10;;;8.80;99.90;;;;;;4993883;28;20039;-88
2023/12/13 03:57:01;;;;;;;30.50;16.02;;;8.70;99.90;;;;;;4958857;28;20045;-88
2023/12/13 03:59:27;;;;;;;34.25;16.90;;;8.70;99.90;;;;;;4991495;28;20042;-89
2023/12/13 04:01:53;;;;;;;34.63;17.25;;;8.70;99.90;;;;;;4966558;28;20038;-88
2023/12/13 04:04:18;;;;;;;30.02;16.63;;;8.70;99.90;;;;;;4992731;28;20266;-88
2023/12/13 04:06:44;;;;;;;31.00;16.38;;;8.80;99.90;;;;;;4974855;28;20304;-88
2023/12/13 04:09:10;;;;;;;30.48;16.25;;;8.80;99.90;;;;;;5007853;28;20054;-89
2023/12/13 04:11:36;;;;;;;34.28;16.38;;;8.70;99.90;;;;;;4968044;28;20046;-88
2023/12/13 04:14:01;;;;;;;34.47;17.42;;;8.70;99.90;;;;;;4965707;28;20054;-88
2023/12/13 04:16:27;;;;;;;32.00;16.05;;;8.70;99.90;;;;;;4970154;28;20034;-88
2023/12/13 04:18:52;;;;;;;31.45;15.88;;;8.80;99.90;;;;;;4978201;28;20042;-88
2023/12/13 04:21:18;;;;;;;31.02;16.42;;;8.70;99.90;;;;;;4965437;28;20034;-88
2023/12/13 04:23:44;;;;;;;30.90;16.50;;;8.80;99.90;;;;;;4967857;28;20038;-88
2023/12/13 04:26:10;;;;;;;34.63;18.70;;;8.90;99.90;;;;;;4979108;28;20041;-82
2023/12/13 04:28:35;;;;;;;36.13;17.85;;;8.70;99.90;;;;;;5010348;28;20428;-82
2023/12/13 04:31:01;;;;;;;37.58;17.73;;;8.70;99.90;;;;;;4972062;28;20517;-82
2023/12/13 04:33:27;;;;;;;34.67;18.25;;;8.70;99.90;;;;;;4974388;28;20050;-82
2023/12/13 04:35:57;;;;;;;28.85;16.23;;;8.70;99.90;;;;;;4972644;28;20107;-82
2023/12/13 04:38:23;;;;;;;31.58;16.95;;;8.80;99.90;;;;;;4990683;28;20065;-82
2023/12/13 04:40:49;;;;;;;37.53;17.98;;;8.80;99.90;;;;;;4961834;28;20043;-81
2023/12/13 04:43:14;;;;;;;30.80;17.27;;;8.90;99.90;;;;;;4965931;28;20030;-88
2023/12/13 04:45:40;;;;;;;32.75;18.23;;;8.90;99.90;;;;;;4965936;28;20038;-88
2023/12/13 04:48:06;;;;;;;31.35;17.08;;;8.80;99.90;;;;;;5010641;28;20068;-89
2023/12/13 04:50:31;;;;;;;33.97;17.80;;;8.90;99.90;;;;;;4966821;28;20085;-88
2023/12/13 04:52:58;;;;;;;35.53;18.73;;;8.90;99.90;;;;;;4999675;28;20053;-88
2023/12/13 04:55:24;;;;;;;36.20;18.45;;;8.80;99.90;;;;;;4982364;28;20102;-88
2023/12/13 04:57:49;;;;;;;33.40;17.77;;;8.90;99.90;;;;;;4963202;28;20101;-89
2023/12/13 05:00:15;;;;;;;32.97;17.70;;;8.90;99.90;;;;;;4992458;28;20041;-88
2023/12/13 05:02:41;;;;;;;31.92;17.05;;;8.90;99.90;;;;;;4974025;28;20501;-89
2023/12/13 05:05:07;;;;;;;30.30;17.13;;;8.90;99.90;;;;;;4976594;28;20050;-88
2023/12/13 05:07:33;;;;;;;28.85;17.45;;;8.80;99.90;;;;;;4979372;28;20046;-88
2023/12/13 05:09:59;;;;;;;27.60;16.25;;;8.80;99.90;;;;;;5012611;28;20470;-88
2023/12/13 05:12:24;;;;;;;28.70;17.33;;;8.90;99.90;;;;;;5006615;28;20119;-89
2023/12/13 05:14:50;;;;;;;27.50;16.40;;;8.90;99.90;;;;;;4978603;28;20156;-88
2023/12/13 05:17:16;;;;;;;35.47;17.42;;;8.80;99.90;;;;;;4965346;28;20128;-88
2023/12/13 05:19:41;;;;;;;30.27;17.85;;;8.90;99.90;;;;;;4976436;28;20502;-88
2023/12/13 05:22:07;;;;;;;32.15;17.70;;;8.80;99.90;;;;;;4960039;28;20106;-88
2023/12/13 05:24:33;;;;;;;28.88;16.90;;;8.80;99.90;;;;;;4967737;28;20042;-87
2023/12/13 05:26:58;;;;;;;27.58;17.10;;;8.90;99.90;;;;;;4981217;28;20132;-88
2023/12/13 05:29:24;;;;;;;27.45;16.38;;;8.90;99.90;;;;;;4968149;28;20062;-88
2023/12/13 05:31:50;;;;;;;29.48;16.50;;;8.80;99.90;;;;;;4987696;28;20218;-89
2023/12/13 05:34:16;;;;;;;29.92;16.55;;;8.90;99.90;;;;;;4977757;28;20485;-88
2023/12/13 05:36:41;;;;;;;27.17;15.68;;;8.90;99.90;;;;;;4970678;28;20062;-89
2023/12/13 05:39:07;;;;;;;29.35;17.20;;;8.80;99.90;;;;;;4967444;28;20497;-89
2023/12/13 05:41:33;;;;;;;30.58;16.92;;;8.90;99.90;;;;;;4988300;28;20278;-88
2023/12/13 05:43:59;;;;;;;28.38;17.13;;;8.90;99.90;;;;;;5011475;28;20042;-88
2023/12/13 05:46:33;;;;;;;27.77;17.23;;;8.90;99.90;;;;;;4978106;28;20124;-89
2023/12/13 05:49:03;;;;;;;33.85;18.77;;;8.90;99.90;;;;;;4998456;28;20038;-88
2023/12/13 05:51:29;;;;;;;28.55;18.10;;;8.80;99.90;;;;;;5007223;28;20112;-88
2023/12/13 05:53:56;;;;;;;35.63;19.75;;;8.80;99.90;;;;;;4965116;28;20410;-88
2023/12/13 05:56:22;;;;;;;38.30;20.05;;;8.80;99.90;;;;;;4974457;28;20038;-88
2023/12/13 05:58:48;;;;;;;34.10;18.95;;;8.80;99.90;;;;;;4968729;28;20088;-88
2023/12/13 06:01:13;;;;;;;28.80;18.92;;;8.80;99.90;;;;;;4962891;28;20039;-88
2023/12/13 06:03:40;;;;;;;29.88;18.92;;;8.90;99.90;;;;;;4982177;28;20498;-88
2023/12/13 06:06:06;;;;;;;32.67;19.45;;;8.80;99.90;;;;;;4971357;28;20058;-88
2023/12/13 06:08:32;;;;;;;35.35;20.60;;;8.70;99.90;;;;;;4967612;28;20065;-88
2023/12/13 06:11:01;;;;;;;30.88;19.33;;;8.70;99.90;;;;;;4970198;28;20069;-89
2023/12/13 06:13:27;;;;;;;31.15;20.63;;;8.80;99.90;;;;;;4970475;28;20346;-89
2023/12/13 06:15:53;;;;;;;39.50;21.50;;;8.60;99.90;;;;;;5011863;28;20053;-88
2023/12/13 06:18:19;;;;;;;33.38;19.00;;;8.80;99.90;;;;;;4970483;28;20066;-89
2023/12/13 06:20:44;;;;;;;33.25;20.17;;;8.80;99.90;;;;;;4967102;28;20361;-88
2023/12/13 06:23:10;;;;;;;34.67;18.55;;;8.60;99.90;;;;;;4966632;28;20078;-88
2023/12/13 06:25:36;;;;;;;31.33;20.02;;;8.60;99.90;;;;;;4972404;28;20050;-88
2023/12/13 06:28:01;;;;;;;33.03;19.98;;;8.80;99.90;;;;;;5012216;28;20042;-88
2023/12/13 06:30:30;;;;;;;33.08;21.55;;;8.70;99.90;;;;;;4997398;28;20046;-87
2023/12/13 06:32:56;;;;;;;36.38;20.20;;;8.60;99.90;;;;;;4974587;28;20049;-82
2023/12/13 06:35:21;;;;;;;34.72;20.65;;;8.60;99.90;;;;;;4959491;28;20056;-82
2023/12/13 06:37:47;;;;;;;33.45;19.60;;;8.70;99.90;;;;;;4986407;28;20658;-82
2023/12/13 06:40:14;;;;;;;38.20;21.58;;;8.80;99.90;;;;;;4974164;28;20041;-82
2023/12/13 06:42:41;;;;;;;37.45;20.67;;;8.60;99.90;;;;;;4985488;28;20498;-82
2023/12/13 06:45:07;;;;;;;39.63;21.17;;;8.60;99.90;;;;;;4988288;28;20443;-82
2023/12/13 06:47:34;;;;;;;34.85;20.45;;;8.80;99.90;;;;;;4960938;28;20343;-81
2023/12/13 06:49:59;;;;;;;32.55;19.38;;;8.70;99.90;;;;;;4965777;28;20867;-82
2023/12/13 06:52:25;;;;;;;33.60;20.02;;;8.60;99.90;;;;;;4995707;28;20038;-82
2023/12/13 06:54:51;;;;;;;34.72;21.13;;;8.60;99.90;;;;;;4973165;28;20038;-82
2023/12/13 06:57:17;;;;;;;31.90;20.83;;;8.80;99.90;;;;;;4974908;28;20034;-82
2023/12/13 06:59:43;;;;;;;35.58;21.00;;;8.70;99.90;;;;;;5001776;28;20506;-82
2023/12/13 07:02:08;;;;;;;36.95;20.85;;;8.60;99.90;;;;;;4987587;28;20047;-82
2023/12/13 07:04:35;;;;;;;36.05;21.83;;;8.60;99.90;;;;;;4990945;28;20057;-82
2023/12/13 07:07:01;;;;;;;37.10;21.98;;;8.70;99.90;;;;;;4967143;28;20054;-81
2023/12/13 07:09:27;;;;;;;41.28;21.77;;;8.80;99.90;;;;;;4990719;28;20494;-82
2023/12/13 07:11:52;;;;;;;36.83;21.70;;;8.80;99.90;;;;;;5011003;28;20410;-82
2023/12/13 07:14:18;;;;;;;38.83;21.55;;;8.70;99.90;;;;;;4964168;28;20038;-82
2023/12/13 07:16:44;;;;;;;36.10;21.45;;;8.80;99.90;;;;;;4961099;28;20046;-82
2023/12/13 07:19:10;;;;;;;35.70;22.10;;;8.80;99.90;;;;;;4975597;28;20050;-82
2023/12/13 07:21:36;;;;;;;37.40;21.55;;;8.80;99.90;;;;;;4994149;28;20442;-82
2023/12/13 07:24:03;;;;;;;32.15;20.88;;;8.70;99.90;;;;;;5006412;28;20054;-82
2023/12/13 07:26:29;;;;;;;37.55;23.25;;;8.80;99.90;;;;;;4969410;28;20049;-81
2023/12/13 07:28:55;;;;;;;41.65;23.45;;;8.70;99.90;;;;;;4988865;28;20334;-82
2023/12/13 07:31:21;;;;;;;39.00;23.60;;;8.80;99.90;;;;;;4962103;28;20778;-82
2023/12/13 07:33:46;;;;;;;40.60;23.33;;;8.90;99.90;;;;;;4971647;28;20237;-82
2023/12/13 07:36:14;;;;;;;51.42;27.27;;;8.90;99.90;;;;;;4978470;28;20501;-82
2023/12/13 07:38:41;;;;;;;41.50;23.63;;;8.80;99.90;;;;;;5002867;28;20125;-82
2023/12/13 07:41:07;;;;;;;37.92;22.35;;;8.90;99.90;;;;;;4962617;28;20073;-82
2023/12/13 07:43:36;;;;;;;41.53;23.77;;;8.70;99.90;;;;;;4975410;28;20053;-82
2023/12/13 07:46:03;;;;;;;39.90;23.58;;;8.90;99.90;;;;;;4973024;28;20050;-82
2023/12/13 07:48:28;;;;;;;40.72;24.05;;;8.70;99.90;;;;;;4985413;28;20118;-82
2023/12/13 07:50:54;;;;;;;47.25;24.25;;;8.80;99.90;;;;;;4963405;28;20412;-82
2023/12/13 07:53:20;;;;;;;40.17;22.73;;;8.90;99.90;;;;;;4976065;28;20128;-82
2023/12/13 07:55:46;;;;;;;42.92;24.90;;;8.90;99.90;;;;;;4957370;28;20188;-82
2023/12/13 07:58:12;;;;;;;42.63;24.80;;;8.80;99.90;;;;;;4971191;28;20046;-82
2023/12/13 08:00:38;;;;;;;42.95;24.00;;;8.80;99.90;;;;;;4961760;28;20108;-82
2023/12/13 08:03:04;;;;;;;41.45;24.55;;;8.80;99.90;;;;;;4974669;28;20078;-82
2023/12/13 08:05:30;;;;;;;38.65;22.65;;;8.90;99.90;;;;;;4983012;28;20618;-82
2023/12/13 08:07:55;;;;;;;36.85;23.00;;;8.80;99.90;;;;;;4969981;28;20784;-82
2023/12/13 08:10:21;;;;;;;37.42;22.73;;;8.80;99.90;;;;;;4986407;28;20134;-82
2023/12/13 08:12:47;;;;;;;37.55;22.45;;;8.90;99.90;;;;;;4987922;28;20137;-82
2023/12/13 08:15:13;;;;;;;37.95;21.10;;;8.90;99.90;;;;;;4972571;28;20474;-82
2023/12/13 08:17:39;;;;;;;39.22;21.23;;;8.80;99.90;;;;;;4959837;28;20374;-82
2023/12/13 08:20:06;;;;;;;39.78;21.58;;;8.90;99.90;;;;;;4987745;28;20074;-82
2023/12/13 08:22:32;;;;;;;37.53;21.92;;;8.90;99.90;;;;;;4962389;28;20046;-82
2023/12/13 08:24:58;;;;;;;37.60;20.67;;;8.80;99.90;;;;;;4961359;28;20042;-82
2023/12/13 08:27:23;;;;;;;38.50;21.83;;;8.90;99.90;;;;;;4990544;28;20035;-81
2023/12/13 08:29:49;;;;;;;38.42;21.48;;;8.80;99.90;;;;;;4987337;28;20093;-82
2023/12/13 08:32:15;;;;;;;37.72;21.20;;;9.00;99.90;;;;;;4974809;28;20184;-82
2023/12/13 08:34:41;;;;;;;48.70;22.80;;;8.80;99.90;;;;;;4957653;28;20053;-82
2023/12/13 08:37:07;;;;;;;41.83;21.60;;;9.00;99.90;;;;;;4960791;28;20037;-81
2023/12/13 08:39:33;;;;;;;36.28;22.58;;;8.90;99.90;;;;;;4989776;28;20201;-82
2023/12/13 08:41:59;;;;;;;37.78;21.58;;;9.00;99.90;;;;;;4972387;28;20050;-82
2023/12/13 08:44:24;;;;;;;36.45;21.50;;;9.00;99.90;;;;;;4962383;28;20309;-82
2023/12/13 08:46:50;;;;;;;39.17;23.20;;;8.90;99.90;;;;;;4982064;28;20592;-82
2023/12/13 08:49:16;;;;;;;38.58;21.67;;;8.90;99.90;;;;;;4953632;28;20100;-82
2023/12/13 08:51:42;;;;;;;43.47;22.85;;;9.10;99.90;;;;;;4960383;28;20563;-82
2023/12/13 08:54:08;;;;;;;42.85;23.15;;;9.10;99.90;;;;;;4975832;28;20118;-82
2023/12/13 08:56:33;;;;;;;39.38;22.27;;;9.20;99.90;;;;;;4993911;28;20540;-82
2023/12/13 08:58:59;;;;;;;41.10;21.83;;;9.20;99.90;;;;;;4963644;28;20518;-82
2023/12/13 09:01:25;;;;;;;43.20;23.02;;;9.20;99.90;;;;;;4974076;28;20070;-82
2023/12/13 09:03:51;;;;;;;42.65;23.02;;;9.20;99.90;;;;;;4960247;28;20073;-82
2023/12/13 09:06:18;;;;;;;39.75;22.85;;;9.30;99.90;;;;;;4990106;28;20140;-82
2023/12/13 09:08:44;;;;;;;39.90;23.42;;;9.50;99.90;;;;;;4971906;28;20057;-82
2023/12/13 09:11:10;;;;;;;40.15;23.15;;;9.60;99.90;;;;;;4959263;28;20046;-82
2023/12/13 09:13:36;;;;;;;42.25;23.20;;;9.60;99.90;;;;;;4961078;28;20451;-82
2023/12/13 09:16:04;;;;;;;41.50;24.17;;;9.60;99.90;;;;;;4971809;28;20076;-82
2023/12/13 09:18:30;;;;;;;41.08;24.48;;;9.60;99.90;;;;;;4969977;28;20061;-82
2023/12/13 09:20:55;;;;;;;42.15;22.13;;;9.60;99.90;;;;;;4956570;28;20393;-82
2023/12/13 09:23:21;;;;;;;42.13;23.38;;;9.80;99.90;;;;;;4961342;28;20459;-82
2023/12/13 09:25:48;;;;;;;45.65;23.88;;;9.80;99.90;;;;;;4961093;28;20470;-82
2023/12/13 09:28:13;;;;;;;42.50;23.27;;;9.80;99.90;;;;;;4994030;28;20060;-82
2023/12/13 09:30:39;;;;;;;42.58;22.25;;;9.80;99.90;;;;;;4991591;28;20050;-82
2023/12/13 09:33:05;;;;;;;40.85;23.23;;;10.00;99.90;;;;;;4962920;28;20514;-82
2023/12/13 09:35:30;;;;;;;56.95;22.70;;;9.80;99.90;;;;;;5006648;28;20298;-82
2023/12/13 09:37:56;;;;;;;40.15;23.27;;;9.70;99.90;;;;;;4980519;28;20046;-82
2023/12/13 09:40:22;;;;;;;44.72;22.63;;;9.90;99.90;;;;;;4974177;28;20045;-82
2023/12/13 09:42:48;;;;;;;44.33;23.38;;;9.80;99.90;;;;;;4965295;28;20042;-82
2023/12/13 09:45:20;;;;;;;44.03;22.80;;;9.80;99.90;;;;;;4974157;28;20073;-82
2023/12/13 09:47:49;;;;;;;38.13;22.00;;;9.90;99.90;;;;;;4957348;28;20133;-82
2023/12/13 09:50:19;;;;;;;37.47;22.38;;;10.00;99.90;;;;;;4973851;28;20057;-82
2023/12/13 09:52:46;;;;;;;36.42;20.80;;;9.90;99.90;;;;;;4991682;28;20042;-82
2023/12/13 09:55:12;;;;;;;40.33;22.50;;;10.00;99.90;;;;;;4971193;28;20046;-82
2023/12/13 09:57:39;;;;;;;39.80;21.23;;;10.10;99.90;;;;;;4961330;28;20043;-82
2023/12/13 10:00:06;;;;;;;36.38;20.80;;;10.10;99.90;;;;;;4971936;28;20557;-82
2023/12/13 10:02:32;;;;;;;34.25;20.33;;;10.00;99.90;;;;;;4975860;28;20053;-82
2023/12/13 10:04:59;;;;;;;45.63;20.63;;;10.10;99.90;;;;;;4975560;28;20061;-82
2023/12/13 10:07:27;;;;;;;38.88;20.05;;;10.00;99.90;;;;;;4973649;28;20133;-82
2023/12/13 10:09:55;;;;;;;34.38;20.45;;;10.20;99.90;;;;;;4970710;28;20121;-82
2023/12/13 10:12:21;;;;;;;37.50;21.42;;;10.10;99.90;;;;;;4977129;28;20042;-82
2023/12/13 10:14:47;;;;;;;38.03;20.35;;;10.10;99.90;;;;;;4966315;28;20122;-82
2023/12/13 10:17:13;;;;;;;40.35;21.42;;;10.00;99.90;;;;;;5007334;28;20162;-82
2023/12/13 10:19:38;;;;;;;33.17;20.20;;;10.00;99.90;;;;;;4974075;28;20070;-81
2023/12/13 10:22:08;;;;;;;39.95;21.48;;;10.10;99.90;;;;;;4962332;28;20417;-82
2023/12/13 10:24:34;;;;;;;36.30;21.23;;;10.10;99.90;;;;;;4997398;28;20053;-82
2023/12/13 10:27:00;;;;;;;37.95;21.52;;;10.10;99.90;;;;;;4954891;28;20041;-82
2023/12/13 10:29:29;;;;;;;35.97;21.60;;;10.20;99.90;;;;;;4957627;28;20034;-82
2023/12/13 10:32:00;;;;;;;35.15;20.27;;;10.10;99.90;;;;;;4987071;28;20039;-82
2023/12/13 10:34:26;;;;;;;43.55;21.33;;;10.20;99.90;;;;;;4964762;28;20089;-82
2023/12/13 10:36:55;;;;;;;35.70;21.60;;;10.30;99.90;;;;;;4976856;28;20046;-82
2023/12/13 10:39:23;;;;;;;41.05;22.42;;;10.30;99.90;;;;;;4968668;28;20812;-82
2023/12/13 10:41:55;;;;;;;38.92;22.13;;;10.20;99.90;;;;;;4955284;28;20552;-82
2023/12/13 10:44:22;;;;;;;40.08;21.73;;;10.10;99.90;;;;;;5008020;28;20046;-82
2023/12/13 10:46:56;;;;;;;42.22;20.67;;;10.10;99.90;;;;;;4953807;28;20734;-82
2023/12/13 10:49:22;;;;;;;40.95;21.40;;;10.20;99.90;;;;;;4994370;28;20050;-82
2023/12/13 10:51:49;;;;;;;40.15;22.25;;;10.10;99.90;;;;;;4958401;28;20034;-82
2023/12/13 10:54:16;;;;;;;41.90;22.65;;;10.10;99.90;;;;;;4993085;28;20449;-82
2023/12/13 10:56:42;;;;;;;38.90;21.80;;;10.10;99.90;;;;;;4994341;28;20330;-82
2023/12/13 10:59:09;;;;;;;43.97;22.70;;;10.20;99.90;;;;;;4966073;28;20450;-82
2023/12/13 11:01:35;;;;;;;38.42;22.30;;;10.10;99.90;;;;;;4957867;28;20402;-82
2023/12/13 11:04:12;;;;;;;37.85;22.77;;;10.20;99.90;;;;;;4989202;28;20371;-82
2023/12/13 11:06:41;;;;;;;39.75;21.27;;;10.20;99.90;;;;;;4988700;28;20498;-82
2023/12/13 11:09:20;;;;;;;40.67;21.98;;;10.20;99.90;;;;;;4992037;28;20482;-82
2023/12/13 11:11:47;;;;;;;44.03;23.58;;;10.10;99.90;;;;;;4988214;28;20178;-82
2023/12/13 11:14:15;;;;;;;40.17;22.20;;;10.30;99.90;;;;;;4957509;28;20739;-82
2023/12/13 11:16:42;;;;;;;40.08;22.25;;;10.10;99.90;;;;;;5003093;28;20043;-82
2023/12/13 11:19:13;;;;;;;42.90;22.83;;;10.10;99.90;;;;;;4964926;28;20062;-82
2023/12/13 11:21:41;;;;;;;40.63;22.23;;;10.10;99.90;;;;;;4963336;28;20046;-82
2023/12/13 11:24:22;;;;;;;43.95;22.42;;;10.10;99.90;;;;;;4957470;28;20058;-82
2023/12/13 11:26:50;;;;;;;42.53;22.20;;;10.10;99.90;;;;;;5002555;28;20119;-82
2023/12/13 11:29:32;;;;;;;42.38;21.63;;;10.20;99.90;;;;;;4963823;28;20046;-82
2023/12/13 11:32:00;;;;;;;36.92;23.10;;;10.00;99.90;;;;;;5002263;28;20053;-82
2023/12/13 11:34:32;;;;;;;37.28;22.88;;;10.10;99.90;;;;;;4990185;28;20089;-82
2023/12/13 11:37:06;;;;;;;35.17;23.05;;;10.20;99.90;;;;;;4994822;28;20518;-82
2023/12/13 11:39:34;;;;;;;37.10;23.00;;;10.20;99.90;;;;;;5006283;28;20265;-82
2023/12/13 11:42:02;;;;;;;36.83;23.27;;;10.00;99.90;;;;;;4985892;28;20316;-82
2023/12/13 11:44:29;;;;;;;38.53;22.45;;;10.00;99.90;;;;;;4988585;28;20248;-82
2023/12/13 11:47:00;;;;;;;43.78;23.20;;;10.00;99.90;;;;;;4982777;28;20137;-82
2023/12/13 11:49:26;;;;;;;35.00;23.23;;;10.00;99.90;;;;;;4995318;28;20444;-82
2023/12/13 11:51:56;;;;;;;47.60;22.92;;;9.90;99.90;;;;;;4960185;28;20216;-82
2023/12/13 11:54:22;;;;;;;37.95;23.08;;;10.00;99.90;;;;;;4957046;28;20039;-83
2023/12/13 11:56:48;;;;;;;37.45;23.17;;;10.10;99.90;;;;;;4994410;28;20223;-82
2023/12/13 11:59:14;;;;;;;37.75;22.98;;;10.00;99.90;;;;;;4987726;28;20042;-82
2023/12/13 12:01:40;;;;;;;36.85;24.63;;;10.00;99.90;;;;;;4971531;28;20063;-82
2023/12/13 12:04:07;;;;;;;41.55;23.75;;;10.00;99.90;;;;;;4962010;28;20292;-82
2023/12/13 12:06:33;;;;;;;43.10;22.83;;;10.00;99.90;;;;;;4967339;28;20094;-82
2023/12/13 12:09:03;;;;;;;36.47;22.17;;;10.00;99.90;;;;;;4973620;28;20062;-82
2023/12/13 12:11:29;;;;;;;36.28;22.70;;;10.10;99.90;;;;;;4989311;28;20061;-81
2023/12/13 12:13:55;;;;;;;35.92;22.58;;;10.00;99.90;;;;;;5006321;28;20042;-82
2023/12/13 12:16:21;;;;;;;44.83;23.10;;;10.00;99.90;;;;;;4971437;28;20061;-82
2023/12/13 12:18:47;;;;;;;40.22;21.48;;;10.10;99.90;;;;;;4962004;28;20085;-82
2023/12/13 12:21:13;;;;;;;36.08;21.02;;;9.90;99.90;;;;;;4960850;28;20452;-82
2023/12/13 12:23:42;;;;;;;47.15;21.80;;;9.90;99.90;;;;;;4991796;28;20484;-82
2023/12/13 12:26:14;;;;;;;40.67;21.40;;;9.90;99.90;;;;;;4992606;28;20034;-82
2023/12/13 12:28:41;;;;;;;38.85;21.90;;;10.00;99.90;;;;;;4969148;28;20056;-82
2023/12/13 12:31:10;;;;;;;40.78;21.88;;;9.90;99.90;;;;;;4962945;28;20052;-82
2023/12/13 12:33:36;;;;;;;40.15;21.48;;;9.90;99.90;;;;;;4960512;28;20041;-82